Terminal Aerodrome Forecast
Issued by NWS

Home | Current Version | Previous Version | Text Only | Print | Product List | Glossary On
Versions: 1 2 3 4 5 6 7 8 9 10 11 12 13 14 15 16
000
FTUS46 KPDT 271129
TAFBDN
TAF
KBDN 271129Z 2712/2812 21011KT P6SM -SHRA SCT040 BKN060
     FM271900 31014G20KT P6SM VCSH SCT040 BKN060
     FM280300 31005KT P6SM SCT060 SCT200
     FM280700 21004KT P6SM SCT090 BKN200=

USA.gov is the U.S. government's official web portal to all federal, state and local government web resources and services.